Time;durP1;ratioP1;P1;durP2;ratioP2;P2;SDS_P1;SDS_P2;PMS_P1;PMS_P2;Temp;Humidity;BMP_temperature;BMP_pressure;BME280_temperature;BME280_humidity;BME280_pressure;Samples;Min_cycle;Max_cycle;Signal;HPM_P1;HPM_P2
2021/12/05 08:26:51;;;;;;;31.75;12.98;;;3.90;99.90;;;;;;5121604;24;20137;-90
2021/12/05 09:22:00;;;;;;;30.70;10.23;;;4.30;99.90;;;;;;4848473;29;20053;-91
2021/12/05 09:27:59;;;;;;;26.17;9.23;;;3.50;99.90;;;;;;4825407;29;20101;-92
2021/12/05 09:52:48;;;;;;;19.00;9.85;;;5.00;99.90;;;;;;4847652;29;20061;-92
2021/12/05 10:02:49;;;;;;;27.15;11.50;;;3.30;99.90;;;;;;4847007;29;20065;-91
2021/12/05 10:10:40;;;;;;;23.95;10.48;;;9.60;99.90;;;;;;4828082;29;20061;-92
2021/12/05 10:15:52;;;;;;;26.30;11.68;;;3.30;99.90;;;;;;4843288;29;20515;-91
2021/12/05 10:35:17;;;;;;;25.95;11.55;;;5.10;99.90;;;;;;4842737;29;20058;-86
2021/12/05 10:37:48;;;;;;;23.88;11.40;;;9.50;99.90;;;;;;4828444;29;20118;-92
2021/12/05 10:40:20;;;;;;;27.40;11.23;;;3.60;99.90;;;;;;4827780;29;20050;-92
2021/12/05 10:42:51;;;;;;;19.95;10.50;;;4.50;99.90;;;;;;4828176;29;20057;-93
2021/12/05 10:45:19;;;;;;;16.30;9.55;;;10.50;99.90;;;;;;4843419;29;20062;-92
2021/12/05 10:47:50;;;;;;;20.83;10.93;;;4.90;99.90;;;;;;4843325;29;20105;-92
2021/12/05 10:50:36;;;;;;;21.85;11.52;;;9.80;99.90;;;;;;4843284;29;20447;-92
2021/12/05 10:53:20;;;;;;;25.38;11.75;;;4.60;99.90;;;;;;4842841;29;20050;-92
2021/12/05 10:56:05;;;;;;;21.92;10.60;;;11.30;99.90;;;;;;4842775;29;20058;-92
2021/12/05 10:58:37;;;;;;;28.45;12.13;;;8.90;99.90;;;;;;4842880;29;20137;-92
2021/12/05 11:01:06;;;;;;;28.15;12.38;;;4.90;99.90;;;;;;4827586;29;20050;-92
2021/12/05 11:03:34;;;;;;;24.10;11.57;;;8.20;99.90;;;;;;4842909;29;20476;-93
2021/12/05 11:06:01;;;;;;;26.58;12.13;;;4.30;99.90;;;;;;4842396;29;20118;-93
2021/12/05 11:08:34;;;;;;;21.90;12.27;;;8.60;99.90;;;;;;4827669;29;20526;-93
2021/12/05 11:11:09;;;;;;;19.92;10.40;;;7.40;99.90;;;;;;4842997;29;20080;-92
2021/12/05 11:13:37;;;;;;;19.13;10.07;;;7.90;99.90;;;;;;4827851;29;20556;-93
2021/12/05 11:16:24;;;;;;;28.10;12.40;;;9.00;99.90;;;;;;4827523;29;20049;-93
2021/12/05 11:18:49;;;;;;;;;;;8.90;99.90;;;;;;4842495;29;20088;-85
2021/12/05 11:21:32;;;;;;;23.70;11.23;;;11.40;99.90;;;;;;4842271;29;20366;-92
2021/12/05 11:24:05;;;;;;;20.30;10.82;;;9.00;99.90;;;;;;4827307;29;20050;-92
2021/12/05 11:26:32;;;;;;;25.17;12.50;;;9.50;99.90;;;;;;4842446;29;20566;-92
2021/12/05 11:28:58;;;;;;;19.75;10.60;;;3.80;99.90;;;;;;4842584;29;20113;-93
2021/12/05 11:31:27;;;;;;;22.73;12.80;;;2.40;99.90;;;;;;4842448;29;20053;-93
2021/12/05 11:33:55;;;;;;;17.27;9.10;;;9.60;99.90;;;;;;4842334;29;20050;-93
2021/12/05 11:36:24;;;;;;;26.95;13.05;;;4.50;99.90;;;;;;4842644;29;20037;-92
2021/12/05 11:38:50;;;;;;;21.85;11.98;;;8.20;99.90;;;;;;4842444;29;20053;-93
2021/12/05 11:41:23;;;;;;;24.35;11.52;;;9.20;99.90;;;;;;4842620;29;20065;-92
2021/12/05 11:43:55;;;;;;;21.52;12.80;;;4.00;99.90;;;;;;4842657;29;20053;-93
2021/12/05 11:46:31;;;;;;;25.38;13.10;;;3.60;99.90;;;;;;4843083;29;20053;-92
2021/12/05 11:49:10;;;;;;;22.70;11.52;;;4.60;99.90;;;;;;4841470;29;20138;-94
2021/12/05 11:52:34;;;;;;;25.45;13.95;;;4.40;99.90;;;;;;4842465;29;20087;-94
2021/12/05 11:55:10;;;;;;;23.38;11.90;;;8.00;99.90;;;;;;4842577;29;20514;-93
2021/12/05 11:57:51;;;;;;;25.27;10.40;;;6.00;99.90;;;;;;4842063;29;20144;-94
2021/12/05 12:00:25;;;;;;;18.17;10.57;;;6.70;99.90;;;;;;4826848;29;20054;-94
2021/12/05 12:02:54;;;;;;;21.33;11.00;;;11.00;99.90;;;;;;4827344;29;20050;-95
2021/12/05 12:05:26;;;;;;;23.58;12.60;;;5.80;99.90;;;;;;4842045;29;20046;-93
2021/12/05 12:08:19;;;;;;;20.95;11.77;;;10.10;99.90;;;;;;4841317;29;20525;-95
2021/12/05 12:11:07;;;;;;;;;;;;;;;;;;;;;
2021/12/05 12:13:38;;;;;;;27.15;13.52;;;9.20;99.90;;;;;;4842695;29;20141;-93
2021/12/05 12:16:08;;;;;;;29.55;12.05;;;4.50;99.90;;;;;;4827049;29;20057;-93
2021/12/05 12:18:45;;;;;;;24.58;11.32;;;8.90;99.90;;;;;;4826804;29;20490;-94
2021/12/05 12:21:23;;;;;;;22.42;10.90;;;9.40;99.90;;;;;;4823022;29;20065;-94
2021/12/05 12:23:51;;;;;;;22.77;11.88;;;7.60;99.90;;;;;;4827502;29;20046;-94
2021/12/05 12:26:24;;;;;;;18.02;9.77;;;2.60;99.90;;;;;;4842356;29;20049;-93
2021/12/05 12:29:15;;;;;;;18.30;10.20;;;4.30;99.90;;;;;;4854001;29;20143;-93
2021/12/05 12:31:57;;;;;;;22.58;10.73;;;9.90;99.90;;;;;;4841874;29;20058;-95
2021/12/05 12:34:27;;;;;;;26.50;8.25;;;3.90;99.90;;;;;;4842381;29;20049;-94
2021/12/05 12:37:00;;;;;;;16.58;8.00;;;8.30;99.90;;;;;;4826731;29;20142;-94
2021/12/05 12:39:32;;;;;;;25.27;12.93;;;6.20;99.90;;;;;;4841783;29;20133;-93
2021/12/05 12:42:20;;;;;;;25.08;11.52;;;8.90;99.90;;;;;;4826820;29;20050;-94
2021/12/05 12:44:56;;;;;;;21.90;11.88;;;5.40;99.90;;;;;;4826595;29;20057;-93
2021/12/05 12:47:34;;;;;;;;;;;6.10;99.90;;;;;;4842347;29;20049;-94
2021/12/05 12:50:26;;;;;;;24.90;10.93;;;6.30;99.90;;;;;;4842293;29;20008;-94
2021/12/05 12:52:59;;;;;;;16.17;8.20;;;4.20;99.90;;;;;;4841680;29;20046;-93
2021/12/05 12:55:43;;;;;;;18.75;12.27;;;9.80;99.90;;;;;;4841829;29;20050;-94
2021/12/05 12:58:13;;;;;;;25.92;12.43;;;7.80;99.90;;;;;;4828875;29;20048;-93
2021/12/05 13:00:47;;;;;;;25.73;11.23;;;9.30;99.90;;;;;;4845010;29;20057;-94
2021/12/05 13:03:40;;;;;;;22.98;11.88;;;10.20;99.90;;;;;;4844751;29;20087;-94
2021/12/05 13:16:13;;;;;;;23.05;10.75;;;9.40;99.90;;;;;;4818580;29;20093;-94
2021/12/05 13:20:01;;;;;;;19.73;10.73;;;4.20;99.90;;;;;;4831086;29;20057;-94
2021/12/05 13:23:04;;;;;;;;;;;;;;;;;;;;;
2021/12/05 13:34:14;;;;;;;16.27;8.85;;;4.20;99.90;;;;;;4730206;30;20206;-94
2021/12/05 13:37:49;;;;;;;;;;;;;;;;;;;;;
2021/12/05 13:41:22;;;;;;;25.67;11.88;;;9.50;99.90;;;;;;4773216;30;20215;-93
2021/12/05 13:44:04;;;;;;;24.48;11.57;;;9.20;99.90;;;;;;4748490;30;20056;-94
2021/12/05 13:46:42;;;;;;;22.15;10.90;;;11.90;99.90;;;;;;4756022;30;20059;-94
2021/12/05 13:57:54;;;;;;;18.02;8.15;;;5.50;99.90;;;;;;4760738;30;20059;-94
2021/12/05 14:00:43;;;;;;;21.48;10.82;;;8.10;99.90;;;;;;4752754;30;20113;-95
2021/12/05 14:11:23;;;;;;;18.60;9.50;;;8.40;99.90;;;;;;4831078;29;20072;-91
2021/12/05 14:17:32;;;;;;;14.75;8.13;;;9.50;99.90;;;;;;4763099;29;20050;-93
2021/12/05 14:42:16;;;;;;;19.27;11.95;;;4.60;99.90;;;;;;4842711;29;20148;-96
2021/12/05 14:44:57;;;;;;;20.13;11.80;;;3.70;99.90;;;;;;4825397;29;20046;-93
2021/12/05 14:47:36;;;;;;;24.05;12.07;;;9.80;99.90;;;;;;4824922;29;20074;-93
2021/12/05 14:50:44;;;;;;;24.35;12.32;;;5.50;99.90;;;;;;4825357;29;20142;-93
2021/12/05 14:53:45;;;;;;;18.60;11.23;;;11.70;99.90;;;;;;4824976;29;20457;-93
2021/12/05 15:00:17;;;;;;;23.02;10.95;;;4.10;99.90;;;;;;4825106;29;20054;-93
2021/12/05 15:02:48;;;;;;;20.75;10.90;;;10.70;99.90;;;;;;4809308;29;20055;-93
2021/12/05 15:05:28;;;;;;;;;;;;;;;;;;;;;
2021/12/05 15:08:25;;;;;;;23.30;11.48;;;6.50;99.90;;;;;;4824668;29;20495;-93
2021/12/05 15:11:08;;;;;;;20.35;11.68;;;8.90;99.90;;;;;;4793129;29;20054;-93
2021/12/05 15:13:59;;;;;;;18.63;11.95;;;8.50;99.90;;;;;;4809705;29;20054;-93
2021/12/05 15:16:33;;;;;;;20.40;11.88;;;8.70;99.90;;;;;;4825559;29;20056;-93
2021/12/05 15:19:09;;;;;;;28.67;12.18;;;9.00;99.90;;;;;;4824899;29;20108;-93
2021/12/05 15:22:13;;;;;;;19.20;11.60;;;4.20;99.90;;;;;;4824783;29;20038;-93
2021/12/05 15:24:53;;;;;;;19.63;11.73;;;3.80;99.90;;;;;;4805030;29;20062;-93
2021/12/05 15:27:45;;;;;;;;;;;;;;;;;;;;;
2021/12/05 15:30:40;;;;;;;24.02;12.32;;;6.20;99.90;;;;;;4825648;29;20058;-93
2021/12/05 15:33:23;;;;;;;24.17;11.80;;;8.80;99.90;;;;;;4824040;29;20062;-93
2021/12/05 15:54:11;;;;;;;21.23;11.77;;;4.90;99.90;;;;;;6220438;23;20039;-93
2021/12/05 15:56:42;;;;;;;23.42;12.55;;;8.80;99.90;;;;;;6168315;23;20016;-91
2021/12/05 15:59:21;;;;;;;26.83;11.98;;;6.90;99.90;;;;;;6195198;23;20019;-92
2021/12/05 16:01:50;;;;;;;21.75;12.57;;;4.60;99.90;;;;;;6326892;22;20023;-79
2021/12/05 16:04:35;;;;;;;24.73;13.15;;;8.90;99.90;;;;;;6227026;23;20060;-92
2021/12/05 16:14:42;;;;;;;26.58;13.68;;;9.30;99.90;;;;;;6225699;23;20055;-88
2021/12/05 16:17:17;;;;;;;27.00;13.25;;;4.60;99.90;;;;;;6195027;23;20013;-93
2021/12/05 16:20:10;;;;;;;25.42;13.02;;;10.50;99.90;;;;;;6162803;23;20021;-92
2021/12/05 16:23:02;;;;;;;27.95;13.77;;;5.00;99.90;;;;;;6163220;23;20013;-92
2021/12/05 16:25:41;;;;;;;19.60;12.38;;;5.60;99.90;;;;;;6163089;23;20328;-93
2021/12/05 16:28:12;;;;;;;26.15;13.65;;;3.30;99.90;;;;;;6162991;23;20052;-93
2021/12/05 16:30:47;;;;;;;25.05;14.15;;;7.90;99.90;;;;;;6162889;23;20013;-92
2021/12/05 16:33:15;;;;;;;29.42;14.48;;;9.50;99.90;;;;;;6162834;23;20039;-92
2021/12/05 16:36:07;;;;;;;23.85;13.90;;;5.40;99.90;;;;;;6162852;23;20521;-93
2021/12/05 16:38:44;;;;;;;27.98;15.30;;;5.80;99.90;;;;;;6162492;23;20046;-92
2021/12/05 16:41:30;;;;;;;25.02;15.50;;;8.00;99.90;;;;;;6162852;23;20446;-92
2021/12/05 16:44:02;;;;;;;28.80;14.88;;;5.30;99.90;;;;;;6162464;23;20021;-92
2021/12/05 16:46:43;;;;;;;28.60;15.95;;;4.80;99.90;;;;;;6162956;23;20048;-92
2021/12/05 16:50:03;;;;;;;30.40;15.98;;;5.70;99.90;;;;;;6158543;23;20032;-92
2021/12/05 16:52:44;;;;;;;;;;;;;;;;;;;;;
2021/12/05 16:55:25;;;;;;;31.95;16.85;;;9.40;99.90;;;;;;6126267;23;20077;-92
2021/12/05 16:58:08;;;;;;;28.70;15.48;;;9.60;99.90;;;;;;6196098;23;20088;-92
2021/12/05 17:00:48;;;;;;;26.20;15.32;;;4.70;99.90;;;;;;6109556;23;20024;-93
2021/12/05 17:33:18;;;;;;;;;;;;;;;;;;;;;
2021/12/05 17:36:30;;;;;;;29.77;16.75;;;8.00;99.90;;;;;;6317198;22;20021;-92
2021/12/05 17:41:51;;;;;;;35.70;19.08;;;7.50;99.90;;;;;;6250898;22;20103;-93
2021/12/05 17:44:39;;;;;;;30.77;18.10;;;8.80;99.90;;;;;;6289579;22;20119;-93
2021/12/05 17:50:44;;;;;;;35.08;19.98;;;9.30;99.90;;;;;;6236330;22;20131;-92
2021/12/05 17:53:31;;;;;;;32.63;19.10;;;9.00;99.90;;;;;;6293053;22;20017;-92
2021/12/05 17:56:20;;;;;;;30.77;18.60;;;9.20;99.90;;;;;;6303082;22;20062;-92
2021/12/05 18:03:57;;;;;;;35.13;19.63;;;4.10;99.90;;;;;;6316927;22;20021;-92
2021/12/05 18:06:24;;;;;;;36.40;19.65;;;5.70;99.90;;;;;;6290991;22;20017;-92
2021/12/05 18:08:51;;;;;;;34.83;19.67;;;5.10;99.90;;;;;;6290196;22;20046;-92
2021/12/05 18:11:22;;;;;;;32.75;19.85;;;4.90;99.90;;;;;;6291593;22;20050;-92
2021/12/05 18:13:54;;;;;;;32.50;20.38;;;5.60;99.90;;;;;;6290937;22;20044;-92
2021/12/05 18:16:24;;;;;;;37.72;18.30;;;5.40;99.90;;;;;;6286039;22;20013;-92
2021/12/05 18:18:56;;;;;;;33.17;20.65;;;9.00;99.90;;;;;;6285673;22;20063;-93
2021/12/05 18:21:24;;;;;;;33.15;21.00;;;4.80;99.90;;;;;;6285637;22;20013;-91
2021/12/05 18:23:51;;;;;;;33.90;19.70;;;11.00;99.90;;;;;;6285885;22;20024;-92
2021/12/05 18:29:13;;;;;;;37.17;18.55;;;7.10;99.90;;;;;;6311552;22;20019;-91
2021/12/05 18:31:39;;;;;;;33.95;20.45;;;4.80;99.90;;;;;;6311707;22;20054;-92
2021/12/05 18:34:12;;;;;;;32.15;19.25;;;8.50;99.90;;;;;;6311714;22;20019;-91
2021/12/05 18:36:43;;;;;;;38.97;21.23;;;4.60;99.90;;;;;;6311892;22;20011;-92
2021/12/05 18:39:13;;;;;;;40.05;21.65;;;8.90;99.90;;;;;;6311567;22;20068;-92
2021/12/05 18:41:43;;;;;;;32.60;20.10;;;8.90;99.90;;;;;;6311727;22;20547;-92
2021/12/05 18:44:20;;;;;;;33.75;20.33;;;9.10;99.90;;;;;;6311567;22;20018;-94
2021/12/05 18:46:51;;;;;;;39.67;20.75;;;9.30;99.90;;;;;;6311033;22;20046;-91
2021/12/05 18:49:22;;;;;;;30.75;19.80;;;3.40;99.90;;;;;;6311089;22;20015;-91
2021/12/05 18:51:53;;;;;;;33.05;19.02;;;9.00;99.90;;;;;;6311725;22;20046;-92
2021/12/05 18:54:19;;;;;;;33.75;19.83;;;5.30;99.90;;;;;;6311413;22;20026;-91
2021/12/05 18:56:45;;;;;;;33.47;19.60;;;9.30;99.90;;;;;;6311520;22;20456;-91
2021/12/05 18:59:12;;;;;;;34.97;20.00;;;6.70;99.90;;;;;;6311254;22;20072;-91
2021/12/05 19:06:57;;;;;;;32.70;19.00;;;5.40;99.90;;;;;;6311374;22;20026;-91
2021/12/05 19:12:00;;;;;;;31.70;17.50;;;9.50;99.90;;;;;;6310934;22;20050;-91
2021/12/05 19:14:34;;;;;;;29.20;18.95;;;6.50;99.90;;;;;;6311013;22;20317;-91
2021/12/05 19:17:03;;;;;;;35.22;19.35;;;11.00;99.90;;;;;;6310820;22;20703;-91
2021/12/05 19:19:31;;;;;;;31.02;18.63;;;8.80;99.90;;;;;;6285140;22;20017;-91
2021/12/05 19:21:58;;;;;;;29.75;19.52;;;5.40;99.90;;;;;;6311208;22;20063;-91
2021/12/05 19:24:25;;;;;;;28.88;17.90;;;7.10;99.90;;;;;;6311149;22;20014;-91
2021/12/05 19:27:16;;;;;;;32.42;19.48;;;8.90;99.90;;;;;;6304277;22;20022;-91
2021/12/05 19:29:44;;;;;;;31.55;18.75;;;9.20;99.90;;;;;;6130419;23;20025;-91
2021/12/05 19:32:11;;;;;;;32.58;19.90;;;6.80;99.90;;;;;;6154949;23;20021;-91
2021/12/05 19:34:37;;;;;;;29.98;19.10;;;8.10;99.90;;;;;;6155245;23;20029;-92
2021/12/05 19:37:05;;;;;;;33.38;20.13;;;8.90;99.90;;;;;;6154895;23;20076;-91
2021/12/05 19:39:37;;;;;;;32.70;20.08;;;4.30;99.90;;;;;;6154895;23;20399;-91
2021/12/05 19:42:06;;;;;;;31.65;19.63;;;7.30;99.90;;;;;;6154753;23;20057;-90
2021/12/05 19:44:36;;;;;;;30.90;19.05;;;8.40;99.90;;;;;;6155084;23;20036;-91
2021/12/05 19:47:06;;;;;;;32.08;19.55;;;8.70;99.90;;;;;;6154666;23;20021;-91
2021/12/05 19:49:33;;;;;;;32.22;20.27;;;8.70;99.90;;;;;;6154731;23;20036;-91
2021/12/05 19:52:03;;;;;;;31.27;19.17;;;8.50;99.90;;;;;;6154937;23;20100;-91
2021/12/05 19:54:32;;;;;;;32.67;20.27;;;4.30;99.90;;;;;;6153694;23;20031;-91
2021/12/05 19:56:58;;;;;;;33.22;18.80;;;8.90;99.90;;;;;;6154757;23;20028;-91
2021/12/05 19:59:24;;;;;;;33.10;19.88;;;5.10;99.90;;;;;;6154369;23;20504;-91
2021/12/05 20:01:52;;;;;;;32.33;20.50;;;8.40;99.90;;;;;;6154795;23;20123;-91
2021/12/05 20:04:20;;;;;;;31.63;20.08;;;3.90;99.90;;;;;;6157244;22;20017;-89
2021/12/05 20:06:49;;;;;;;36.72;20.15;;;3.40;99.90;;;;;;6154651;23;20452;-92
2021/12/05 20:09:18;;;;;;;33.88;20.20;;;3.60;99.90;;;;;;6154579;23;20028;-91
2021/12/05 20:11:46;;;;;;;33.05;19.17;;;7.90;99.90;;;;;;6154856;23;20017;-92
2021/12/05 20:14:12;;;;;;;33.47;19.67;;;6.90;99.90;;;;;;6154488;23;20016;-92
2021/12/05 20:16:38;;;;;;;31.67;18.77;;;5.20;99.90;;;;;;6154312;23;20099;-92
2021/12/05 20:19:07;;;;;;;32.28;19.58;;;10.00;99.90;;;;;;6156065;23;20017;-93
2021/12/05 20:21:39;;;;;;;33.03;19.33;;;3.90;99.90;;;;;;6154821;22;20029;-91
2021/12/05 20:24:05;;;;;;;35.45;20.60;;;6.80;99.90;;;;;;6180532;23;20312;-90
2021/12/05 20:26:37;;;;;;;32.28;19.13;;;3.80;99.90;;;;;;6155860;23;20462;-91
2021/12/05 20:29:04;;;;;;;37.78;20.15;;;3.70;99.90;;;;;;6155435;22;20013;-92
2021/12/05 20:31:30;;;;;;;32.67;20.63;;;4.20;99.90;;;;;;6155324;22;20083;-92
2021/12/05 20:33:57;;;;;;;30.40;20.13;;;5.40;99.90;;;;;;6155208;23;20013;-91
2021/12/05 20:36:23;;;;;;;34.00;19.67;;;9.00;99.90;;;;;;6155868;22;20017;-92
2021/12/05 20:38:49;;;;;;;31.00;21.20;;;3.70;99.90;;;;;;6156731;22;20092;-92
2021/12/05 20:41:16;;;;;;;35.92;21.73;;;7.90;99.90;;;;;;6131360;23;20025;-91
2021/12/05 20:43:45;;;;;;;37.92;21.52;;;7.80;99.90;;;;;;6155892;22;20017;-91
2021/12/05 20:46:14;;;;;;;37.33;21.25;;;9.00;99.90;;;;;;6157513;22;20017;-91
2021/12/05 20:48:43;;;;;;;35.85;22.42;;;5.40;99.90;;;;;;6157301;23;20013;-91
2021/12/05 20:51:12;;;;;;;33.53;21.67;;;5.10;99.90;;;;;;6157202;23;20033;-91
2021/12/05 20:53:42;;;;;;;33.05;22.15;;;8.30;99.90;;;;;;6132670;23;20048;-91
2021/12/05 20:56:09;;;;;;;31.60;22.35;;;6.30;99.90;;;;;;6132869;23;20017;-91
2021/12/05 20:58:35;;;;;;;29.70;20.48;;;9.20;99.90;;;;;;6156264;23;20021;-91
2021/12/05 21:01:03;;;;;;;29.83;19.70;;;8.70;99.90;;;;;;6262098;22;20071;-92
2021/12/05 21:03:34;;;;;;;29.90;19.30;;;3.80;99.90;;;;;;6132833;23;20018;-92
2021/12/05 21:06:05;;;;;;;32.13;18.92;;;9.70;99.90;;;;;;6132659;23;20023;-92
2021/12/05 21:08:35;;;;;;;30.20;19.20;;;6.70;99.90;;;;;;6156765;23;20045;-91
2021/12/05 21:11:11;;;;;;;29.75;18.38;;;8.60;99.90;;;;;;6157667;22;20031;-92
2021/12/05 21:13:38;;;;;;;30.55;20.23;;;4.10;99.90;;;;;;6157444;23;20025;-91
2021/12/05 21:16:06;;;;;;;30.58;20.75;;;4.50;99.90;;;;;;6157054;23;20086;-91
2021/12/05 21:18:33;;;;;;;33.45;21.25;;;3.80;99.90;;;;;;6157804;23;20033;-91
2021/12/05 21:21:02;;;;;;;38.47;24.20;;;5.00;99.90;;;;;;6157596;23;20020;-91
2021/12/05 21:23:29;;;;;;;40.92;25.83;;;5.60;99.90;;;;;;6157519;23;20100;-91
2021/12/05 21:25:55;;;;;;;37.35;25.73;;;5.20;99.90;;;;;;6182163;23;20394;-91
2021/12/05 21:28:28;;;;;;;41.15;26.63;;;6.70;99.90;;;;;;6165770;22;20021;-91
2021/12/05 21:30:56;;;;;;;40.78;26.27;;;5.30;99.90;;;;;;6157806;23;20021;-91
2021/12/05 21:33:23;;;;;;;42.20;26.95;;;9.50;99.90;;;;;;6182372;23;20016;-92
2021/12/05 21:35:50;;;;;;;37.10;24.50;;;6.00;99.90;;;;;;6182320;23;20021;-92
2021/12/05 21:38:23;;;;;;;33.75;24.08;;;8.30;99.90;;;;;;6182266;23;20077;-92
2021/12/05 21:40:56;;;;;;;32.60;22.75;;;3.70;99.90;;;;;;6182031;23;20323;-91
2021/12/05 21:43:25;;;;;;;32.88;23.50;;;8.00;99.90;;;;;;6182033;23;20347;-91
2021/12/05 21:45:51;;;;;;;32.58;21.88;;;4.10;99.90;;;;;;6181232;23;20068;-91
2021/12/05 21:48:19;;;;;;;32.65;23.45;;;7.40;99.90;;;;;;6180296;23;20124;-92
2021/12/05 21:50:57;;;;;;;32.20;22.58;;;10.90;99.90;;;;;;6180283;23;20024;-94
2021/12/05 21:57:19;;;;;;;28.58;18.88;;;3.60;99.90;;;;;;6182163;23;20092;-92
2021/12/05 21:59:48;;;;;;;23.67;18.48;;;4.50;99.90;;;;;;6179988;23;20021;-91
2021/12/05 22:02:14;;;;;;;24.48;17.75;;;4.00;99.90;;;;;;6180117;23;20017;-91
2021/12/05 22:04:40;;;;;;;22.75;17.25;;;7.90;99.90;;;;;;6179928;23;20027;-91
2021/12/05 22:07:06;;;;;;;21.15;16.98;;;9.50;99.90;;;;;;6180032;23;20096;-91
2021/12/05 22:09:32;;;;;;;20.75;15.18;;;7.30;99.90;;;;;;6180103;23;20021;-92
2021/12/05 22:11:58;;;;;;;18.85;14.82;;;3.60;99.90;;;;;;6179918;23;20016;-91
2021/12/05 22:14:24;;;;;;;20.80;15.25;;;7.90;99.90;;;;;;6180097;23;20020;-91
2021/12/05 22:16:51;;;;;;;18.77;14.25;;;6.10;99.90;;;;;;6179775;23;20055;-91
2021/12/05 22:19:18;;;;;;;17.40;14.40;;;4.10;99.90;;;;;;6179902;23;20013;-91
2021/12/05 22:21:47;;;;;;;20.33;14.25;;;6.50;99.90;;;;;;6180052;22;20021;-91
2021/12/05 22:24:16;;;;;;;19.90;14.98;;;5.80;99.90;;;;;;6180041;23;20017;-91
2021/12/05 22:26:44;;;;;;;22.35;13.45;;;7.80;99.90;;;;;;6180063;23;20100;-92
2021/12/05 22:29:12;;;;;;;16.20;12.95;;;3.50;99.90;;;;;;6178258;23;20017;-91
2021/12/05 22:31:41;;;;;;;14.30;11.23;;;7.90;99.90;;;;;;6155161;23;20060;-92
2021/12/05 22:34:09;;;;;;;13.70;10.95;;;9.30;99.90;;;;;;6179416;23;20103;-91
2021/12/05 22:36:43;;;;;;;13.10;10.60;;;4.80;99.90;;;;;;6179925;23;20028;-92
2021/12/05 22:39:12;;;;;;;12.88;10.05;;;6.70;99.90;;;;;;6179685;23;20101;-91
2021/12/05 22:41:38;;;;;;;13.23;10.27;;;9.60;99.90;;;;;;6179845;23;20351;-91
2021/12/05 22:44:05;;;;;;;12.73;9.80;;;3.90;99.90;;;;;;6179928;23;20017;-91
2021/12/05 22:46:32;;;;;;;11.98;8.85;;;8.30;99.90;;;;;;6179713;23;20017;-91
2021/12/05 22:48:57;;;;;;;15.90;10.93;;;3.50;99.90;;;;;;6179452;23;20013;-91
2021/12/05 22:51:26;;;;;;;15.43;11.07;;;8.20;99.90;;;;;;6179801;23;20504;-92
2021/12/05 22:53:52;;;;;;;13.18;10.45;;;3.60;99.90;;;;;;6179953;23;20064;-91
2021/12/05 22:56:18;;;;;;;13.95;10.98;;;7.30;99.90;;;;;;6179536;23;20013;-91
2021/12/05 22:58:44;;;;;;;13.02;9.77;;;7.70;99.90;;;;;;6179231;23;20067;-91
2021/12/05 23:01:13;;;;;;;12.45;9.68;;;6.80;99.90;;;;;;6179865;23;20017;-91
2021/12/05 23:03:45;;;;;;;13.65;10.13;;;6.80;99.90;;;;;;6179433;23;20024;-91
2021/12/05 23:06:13;;;;;;;13.18;9.60;;;6.10;99.90;;;;;;6179622;23;20036;-91
2021/12/05 23:08:39;;;;;;;13.32;9.55;;;5.10;99.90;;;;;;6179585;23;20320;-92
2021/12/05 23:11:07;;;;;;;14.55;10.70;;;7.90;99.90;;;;;;6179693;23;20320;-91
2021/12/05 23:13:36;;;;;;;13.10;10.25;;;4.00;99.90;;;;;;6179386;23;20013;-91
2021/12/05 23:16:05;;;;;;;14.55;10.63;;;7.50;99.90;;;;;;6179392;23;20312;-91
2021/12/05 23:18:31;;;;;;;16.17;11.07;;;7.30;99.90;;;;;;6179456;23;20020;-91
2021/12/05 23:20:57;;;;;;;15.23;10.65;;;4.30;99.90;;;;;;6179128;23;20019;-91
2021/12/05 23:23:23;;;;;;;18.25;11.35;;;8.70;99.90;;;;;;6179747;22;20017;-91
2021/12/05 23:25:51;;;;;;;17.20;11.63;;;9.40;99.90;;;;;;6179345;23;20024;-92
2021/12/05 23:28:22;;;;;;;16.38;9.75;;;7.00;99.90;;;;;;6179957;22;20025;-91
2021/12/05 23:30:50;;;;;;;16.75;11.63;;;5.40;99.90;;;;;;6154400;23;20355;-92
2021/12/05 23:33:24;;;;;;;20.10;11.82;;;8.20;99.90;;;;;;6154840;22;20056;-91
2021/12/05 23:35:50;;;;;;;16.52;11.88;;;3.40;99.90;;;;;;6154617;23;20024;-91
2021/12/05 23:38:17;;;;;;;17.95;11.88;;;4.00;99.90;;;;;;6154668;22;20021;-91
2021/12/05 23:40:43;;;;;;;17.77;11.95;;;2.60;99.90;;;;;;6155102;22;20029;-91
2021/12/05 23:43:09;;;;;;;20.33;13.70;;;6.90;99.90;;;;;;6154899;22;20312;-91
2021/12/05 23:45:36;;;;;;;19.65;13.05;;;6.90;99.90;;;;;;6154754;22;20025;-91
2021/12/05 23:48:04;;;;;;;18.02;12.27;;;3.20;99.90;;;;;;6155246;22;20297;-91
2021/12/05 23:50:34;;;;;;;20.73;13.40;;;3.30;99.90;;;;;;6154930;22;20017;-92
2021/12/05 23:53:00;;;;;;;21.05;13.90;;;2.40;99.90;;;;;;6154813;23;20017;-91
2021/12/05 23:55:28;;;;;;;25.00;15.25;;;5.60;99.90;;;;;;6154728;22;20024;-91
2021/12/05 23:57:55;;;;;;;22.48;14.70;;;3.50;99.90;;;;;;6258580;22;20045;-91
